Skip Navigation LinksHome page > Weather > Current weather Skip Navigation Links

Current Weather

Heathrow, London

For information only: do not use for flight planning or navigation.
Latest weather
Observation time Friday, October 20, 2017 5:50 AM BST
Local time Friday, October 20, 2017 5:59 AM BST
Flight conditions Marginal Visual Meteorological Conditions
Winds
Wind direction Southwest (220°)
Wind speed 18 mph
Visibility 6.2 mi.
Present weather light rain
Sky condition
Ceiling 1,200 ft. broken clouds
Cloud layer broken clouds 1,200 ft.
Cloud layer scattered clouds 1,300 ft.
Cloud layer broken clouds 1,900 ft.
Cloud layer overcast 2,100 ft.
Temperature 55°F
Dewpoint 52°F
Altimeter 29.44 in.Hg
Derived measurements
Relative humidity 88%
Density altitude 501 ft.
Remarks
Corrected report.
METAR COR EGLL 200450Z 22016KT 9999 -RA SCT013 BKN019 OVC021 13/11 Q0997 TEMPO BKN012

Settings

Location code

InnerDrive.Weather 4.0.6144.1 Release CLR 4.0.30319.36366
Copyright ©2015 Inner Drive Technology. All rights reserved. Portions Copyright ©1986-2015 David Braverman.

Find weather

Site navigation


Skip Navigation Links

Place info

Page info

PayPal - The safer, easier way to pay online!

Return home.

Copyright ©2017 Inner Drive Technology. Purveyors of fine, hand-crafted computer software. Page printed 2017-10-20T04:59:10 UTC.